Time;durP1;ratioP1;P1;durP2;ratioP2;P2;SDS_P1;SDS_P2;PMS_P1;PMS_P2;Temp;Humidity;BMP_temperature;BMP_pressure;BME280_temperature;BME280_humidity;BME280_pressure;Samples;Min_cycle;Max_cycle;Signal;HPM_P1;HPM_P2
2022/07/03 00:00:04;;;;;;;;;;;;;;;23.66;51.27;99943.69;2058432;28;19962;-45
2022/07/03 00:01:04;;;;;;;;;;;;;;;23.65;51.17;99950.25;2060966;28;20429;-44
2022/07/03 00:02:04;;;;;;;;;;;;;;;23.64;51.24;99943.88;2060095;28;19928;-46
2022/07/03 00:03:05;;;;;;;;;;;;;;;23.65;51.10;99950.25;2059041;28;19924;-48
2022/07/03 00:04:05;;;;;;;;;;;;;;;23.64;51.27;99949.38;2059745;28;20230;-47
2022/07/03 00:05:05;;;;;;;;;;;;;;;23.65;51.25;99955.75;2059662;28;20555;-45
2022/07/03 00:06:06;;;;;;;;;;;;;;;23.65;51.24;99955.75;2055554;28;19917;-46
2022/07/03 00:07:06;;;;;;;;;;;;;;;23.64;51.18;99943.88;2057276;28;19918;-45
2022/07/03 00:08:06;;;;;;;;;;;;;;;23.65;51.23;99944.75;2050436;28;20204;-46
2022/07/03 00:09:07;;;;;;;;;;;;;;;23.64;51.20;99938.38;2052241;28;20368;-49
2022/07/03 00:10:07;;;;;;;;;;;;;;;23.65;51.27;99941.97;2057200;28;20148;-47
2022/07/03 00:11:08;;;;;;;;;;;;;;;23.64;51.17;99937.50;2063964;28;20181;-45
2022/07/03 00:12:09;;;;;;;;;;;;;;;23.64;51.22;99943.88;2063204;28;20124;-46
2022/07/03 00:13:09;;;;;;;;;;;;;;;23.64;51.29;99948.50;2061061;28;19914;-46
2022/07/03 00:14:09;;;;;;;;;;;;;;;23.63;51.30;99946.81;2058213;28;20540;-48
2022/07/03 00:15:10;;;;;;;;;;;;;;;23.63;51.29;99947.66;2059081;28;19921;-46
2022/07/03 00:16:10;;;;;;;;;;;;;;;23.64;51.25;99943.00;2059968;28;19957;-46
2022/07/03 00:17:11;;;;;;;;;;;;;;;23.64;51.27;99943.00;2060716;28;19917;-48
2022/07/03 00:18:11;;;;;;;;;;;;;;;23.63;51.33;99939.41;2057561;28;19960;-48
2022/07/03 00:19:12;;;;;;;;;;;;;;;23.62;51.31;99939.59;2058114;28;20271;-46
2022/07/03 00:20:12;;;;;;;;;;;;;;;23.63;51.42;99941.31;2061098;28;20015;-46
2022/07/03 00:21:16;;;;;;;;;;;;;;;23.63;51.37;99933.06;2062032;28;20186;-46
2022/07/03 00:22:17;;;;;;;;;;;;;;;23.62;51.42;99936.84;2065420;28;20390;-46
2022/07/03 00:23:17;;;;;;;;;;;;;;;23.62;51.49;99934.09;2061601;28;19924;-45
2022/07/03 00:24:26;;;;;;;;;;;;;;;23.61;51.45;99935.97;2059296;28;20228;-45
2022/07/03 00:25:26;;;;;;;;;;;;;;;23.61;51.36;99937.88;2052243;28;19921;-46
2022/07/03 00:26:29;;;;;;;;;;;;;;;23.62;51.44;99931.34;2058356;28;20773;-49
2022/07/03 00:27:32;;;;;;;;;;;;;;;23.61;51.46;99933.22;2060666;28;19958;-49
2022/07/03 00:28:32;;;;;;;;;;;;;;;23.61;51.49;99921.38;2061505;28;19918;-46
2022/07/03 00:29:37;;;;;;;;;;;;;;;23.60;51.40;99920.53;2058419;28;19918;-45
2022/07/03 00:30:37;;;;;;;;;;;;;;;23.63;51.37;99924.81;2057814;28;19928;-46
2022/07/03 00:31:37;;;;;;;;;;;;;;;23.63;51.47;99927.56;2058274;28;19935;-48
2022/07/03 00:32:38;;;;;;;;;;;;;;;23.62;51.50;99925.84;2055756;28;19942;-46
2022/07/03 00:33:40;;;;;;;;;;;;;;;23.62;51.43;99912.09;2060809;28;19923;-46
2022/07/03 00:34:42;;;;;;;;;;;;;;;23.63;51.48;99916.53;2056277;28;19918;-46
2022/07/03 00:35:42;;;;;;;;;;;;;;;23.62;51.31;99912.09;2060257;28;20319;-46
2022/07/03 00:36:44;;;;;;;;;;;;;;;23.62;51.34;99909.34;2061362;28;19921;-47
2022/07/03 00:37:44;;;;;;;;;;;;;;;23.63;51.32;99911.03;2061133;28;19964;-45
2022/07/03 00:38:45;;;;;;;;;;;;;;;23.62;51.41;99914.84;2055438;28;19910;-46
2022/07/03 00:39:45;;;;;;;;;;;;;;;23.62;51.39;99914.84;2059331;28;20099;-47
2022/07/03 00:40:46;;;;;;;;;;;;;;;23.62;51.39;99920.34;2061494;28;19909;-48
2022/07/03 00:41:46;;;;;;;;;;;;;;;23.62;51.28;99921.19;2059825;28;19964;-46
2022/07/03 00:42:48;;;;;;;;;;;;;;;23.62;51.36;99923.09;2060077;28;19909;-46
2022/07/03 00:43:49;;;;;;;;;;;;;;;23.62;51.33;99923.94;2052969;28;19924;-49
2022/07/03 00:44:50;;;;;;;;;;;;;;;23.62;51.30;99918.44;2063196;28;20631;-45
2022/07/03 00:45:51;;;;;;;;;;;;;;;23.62;51.44;99923.09;2056388;28;20058;-45
2022/07/03 00:46:52;;;;;;;;;;;;;;;23.63;51.38;99919.28;2055386;28;19968;-46
2022/07/03 00:47:54;;;;;;;;;;;;;;;23.61;51.46;99921.38;2058353;28;19924;-45
2022/07/03 00:48:56;;;;;;;;;;;;;;;23.62;51.41;99917.59;2056012;28;20079;-45
2022/07/03 00:49:59;;;;;;;;;;;;;;;23.62;51.38;99912.09;2056583;28;19918;-59
2022/07/03 00:51:00;;;;;;;;;;;;;;;23.62;51.43;99920.34;2058862;28;19987;-45
2022/07/03 00:52:03;;;;;;;;;;;;;;;23.61;51.45;99922.22;2061030;28;20335;-46
2022/07/03 00:53:03;;;;;;;;;;;;;;;23.61;51.43;99919.47;2049624;28;19918;-46
2022/07/03 00:54:04;;;;;;;;;;;;;;;23.61;51.49;99921.38;2050828;28;19941;-46
2022/07/03 00:55:12;;;;;;;;;;;;;;;23.61;51.61;99921.38;2055432;28;19925;-45
2022/07/03 00:56:13;;;;;;;;;;;;;;;23.61;51.50;99921.38;2063599;28;20443;-47
2022/07/03 00:57:14;;;;;;;;;;;;;;;23.61;51.45;99921.38;2058369;28;19917;-46
2022/07/03 00:58:19;;;;;;;;;;;;;;;23.61;51.53;99921.38;2061209;28;19961;-49
2022/07/03 00:59:19;;;;;;;;;;;;;;;23.60;51.45;99925.19;2068185;28;20291;-47
2022/07/03 01:00:19;;;;;;;;;;;;;;;23.59;51.45;99918.81;2062159;28;19929;-47
2022/07/03 01:01:21;;;;;;;;;;;;;;;23.61;51.36;99918.63;2054067;28;19918;-45
2022/07/03 01:02:34;;;;;;;;;;;;;;;23.60;51.53;99919.66;2059319;28;20033;-46
2022/07/03 01:03:39;;;;;;;;;;;;;;;23.60;51.54;99914.16;2062889;28;19921;-47
2022/07/03 01:04:51;;;;;;;;;;;;;;;23.61;51.49;99915.88;2060397;28;19918;-46
2022/07/03 01:05:52;;;;;;;;;;;;;;;23.60;51.52;99911.41;2060128;28;19917;-45
2022/07/03 01:07:00;;;;;;;;;;;;;;;23.59;51.60;99909.69;2059809;28;19957;-46
2022/07/03 01:08:19;;;;;;;;;;;;;;;23.59;51.55;99907.81;2061743;28;20020;-45
2022/07/03 01:09:26;;;;;;;;;;;;;;;23.61;51.61;99910.38;2053484;28;19994;-46
2022/07/03 01:10:44;;;;;;;;;;;;;;;23.60;51.60;99908.66;2050365;28;19925;-47
2022/07/03 01:11:50;;;;;;;;;;;;;;;23.60;51.56;99908.66;2053371;28;19924;-47
2022/07/03 01:13:09;;;;;;;;;;;;;;;23.60;51.45;99903.16;2061625;28;20181;-45
2022/07/03 01:14:28;;;;;;;;;;;;;;;23.60;51.48;99905.91;2060928;28;19968;-45
2022/07/03 01:15:35;;;;;;;;;;;;;;;23.61;51.49;99904.88;2062031;28;20449;-46
2022/07/03 01:16:57;;;;;;;;;;;;;;;23.61;51.55;99904.88;2057840;28;20012;-45
2022/07/03 01:18:16;;;;;;;;;;;;;;;23.61;51.44;99915.88;2060127;28;19912;-46
2022/07/03 01:19:25;;;;;;;;;;;;;;;23.61;51.55;99918.63;2061350;28;19932;-45
2022/07/03 01:20:28;;;;;;;;;;;;;;;23.60;51.49;99920.53;2060304;28;20095;-47
2022/07/03 01:21:28;;;;;;;;;;;;;;;23.61;51.50;99918.63;2048630;28;19910;-45
2022/07/03 01:22:31;;;;;;;;;;;;;;;23.60;51.50;99914.16;2059222;28;19921;-47
2022/07/03 01:23:43;;;;;;;;;;;;;;;23.61;51.53;99918.63;2059974;28;20182;-45
2022/07/03 01:25:04;;;;;;;;;;;;;;;23.60;51.53;99916.91;2059571;28;19947;-45
2022/07/03 01:26:08;;;;;;;;;;;;;;;23.61;51.57;99921.38;2057469;28;20260;-45
2022/07/03 01:27:12;;;;;;;;;;;;;;;23.60;51.47;99908.66;2066877;28;19932;-45
2022/07/03 01:28:14;;;;;;;;;;;;;;;23.61;51.55;99915.88;2060376;28;20283;-46
2022/07/03 01:29:20;;;;;;;;;;;;;;;23.61;51.51;99918.63;2060810;28;19922;-45
2022/07/03 01:30:22;;;;;;;;;;;;;;;23.59;51.62;99915.19;2060539;28;20177;-47
2022/07/03 01:31:22;;;;;;;;;;;;;;;23.60;51.61;99914.16;2060601;28;21059;-46
2022/07/03 01:32:24;;;;;;;;;;;;;;;23.60;51.53;99919.66;2060087;28;19914;-46
2022/07/03 01:33:25;;;;;;;;;;;;;;;23.59;51.66;99918.81;2059819;28;19913;-45
2022/07/03 01:34:29;;;;;;;;;;;;;;;23.59;51.59;99920.69;2062412;28;19921;-47
2022/07/03 01:35:34;;;;;;;;;;;;;;;23.60;51.66;99925.19;2052595;28;19922;-46
2022/07/03 01:36:38;;;;;;;;;;;;;;;23.60;51.62;99919.66;2059786;28;19991;-46
2022/07/03 01:37:39;;;;;;;;;;;;;;;23.58;51.69;99919.00;2059230;28;20020;-45
2022/07/03 01:38:40;;;;;;;;;;;;;;;23.58;51.62;99916.25;2053248;28;19962;-45
2022/07/03 01:39:42;;;;;;;;;;;;;;;23.59;51.67;99917.94;2058414;28;19975;-48
2022/07/03 01:40:43;;;;;;;;;;;;;;;23.58;51.69;99917.09;2052489;28;20275;-46
2022/07/03 01:41:48;;;;;;;;;;;;;;;23.58;51.63;99916.25;2045416;28;19918;-45
2022/07/03 01:42:48;;;;;;;;;;;;;;;23.60;51.74;99914.16;2058434;28;20000;-48
2022/07/03 01:43:49;;;;;;;;;;;;;;;23.58;51.79;99910.75;2060531;28;19917;-46
2022/07/03 01:44:54;;;;;;;;;;;;;;;23.58;51.64;99917.09;2045729;28;19922;-46
2022/07/03 01:45:56;;;;;;;;;;;;;;;23.59;51.79;99923.44;2047841;28;20348;-46
2022/07/03 01:46:58;;;;;;;;;;;;;;;23.58;51.61;99914.34;2052423;28;20345;-46
2022/07/03 01:48:00;;;;;;;;;;;;;;;23.59;51.71;99918.81;2054021;28;19972;-46
2022/07/03 01:49:01;;;;;;;;;;;;;;;23.59;51.71;99916.06;2056412;28;19925;-46
2022/07/03 01:50:02;;;;;;;;;;;;;;;23.59;51.41;99917.94;2052601;28;19924;-48
2022/07/03 01:51:03;;;;;;;;;;;;;;;23.58;51.61;99917.09;2050880;28;19960;-46
2022/07/03 01:52:05;;;;;;;;;;;;;;;23.59;51.71;99917.94;2061327;28;19921;-46
2022/07/03 01:53:07;;;;;;;;;;;;;;;23.59;51.61;99920.69;2059295;28;19957;-48
2022/07/03 01:54:09;;;;;;;;;;;;;;;23.59;51.71;99915.19;2061035;28;20087;-48
2022/07/03 01:55:09;;;;;;;;;;;;;;;23.59;51.63;99912.44;2060737;28;20330;-45
2022/07/03 01:56:11;;;;;;;;;;;;;;;23.58;51.63;99906.09;2057916;28;19940;-49
2022/07/03 01:57:11;;;;;;;;;;;;;;;23.59;51.66;99906.94;2057749;28;21220;-47
2022/07/03 01:58:11;;;;;;;;;;;;;;;23.60;51.62;99914.16;2060127;28;19921;-46
2022/07/03 01:59:12;;;;;;;;;;;;;;;23.59;51.72;99898.69;2059909;28;20347;-46
2022/07/03 02:00:13;;;;;;;;;;;;;;;23.59;51.67;99906.94;2061284;28;19948;-46
2022/07/03 02:01:23;;;;;;;;;;;;;;;23.59;51.72;99901.44;2058689;28;19965;-46
2022/07/03 02:02:25;;;;;;;;;;;;;;;23.59;51.72;99895.94;2064476;28;19921;-46
2022/07/03 02:03:27;;;;;;;;;;;;;;;23.58;51.63;99895.09;2060889;28;19913;-47
2022/07/03 02:04:32;;;;;;;;;;;;;;;23.58;51.69;99896.97;2058918;28;20346;-47
2022/07/03 02:05:42;;;;;;;;;;;;;;;23.59;51.72;99895.94;2060791;28;20032;-45
2022/07/03 02:06:48;;;;;;;;;;;;;;;23.58;51.72;99900.59;2061008;28;20429;-45
2022/07/03 02:07:48;;;;;;;;;;;;;;;23.59;51.79;99898.69;2060585;28;19921;-46
2022/07/03 02:09:01;;;;;;;;;;;;;;;23.59;51.74;99912.44;2061929;28;19918;-46
2022/07/03 02:10:08;;;;;;;;;;;;;;;23.58;51.77;99905.25;2059929;28;19925;-46
2022/07/03 02:11:11;;;;;;;;;;;;;;;23.59;51.77;99901.44;2056369;28;19992;-46
2022/07/03 02:12:12;;;;;;;;;;;;;;;23.58;51.89;99906.09;2053979;28;20112;-45
2022/07/03 02:13:17;;;;;;;;;;;;;;;23.58;51.78;99905.25;2053321;28;19910;-46
2022/07/03 02:14:18;;;;;;;;;;;;;;;23.57;51.92;99903.50;2057515;28;19917;-46
2022/07/03 02:15:33;;;;;;;;;;;;;;;23.58;51.93;99905.25;2057539;28;19918;-47
2022/07/03 02:16:44;;;;;;;;;;;;;;;23.57;51.81;99898.88;2059398;28;19921;-46
2022/07/03 02:17:46;;;;;;;;;;;;;;;23.57;52.02;99903.50;2059892;28;20399;-46
2022/07/03 02:18:54;;;;;;;;;;;;;;;23.57;51.86;99903.50;2060397;28;19925;-45
2022/07/03 02:20:02;;;;;;;;;;;;;;;23.57;51.80;99909.00;2060458;28;19971;-47
2022/07/03 02:21:18;;;;;;;;;;;;;;;23.57;51.96;99907.13;2061275;28;20358;-47
2022/07/03 02:22:19;;;;;;;;;;;;;;;23.56;51.88;99902.66;2059220;28;19924;-46
2022/07/03 02:23:23;;;;;;;;;;;;;;;23.57;51.81;99898.88;2061803;28;20446;-46
2022/07/03 02:24:26;;;;;;;;;;;;;;;23.57;51.87;99898.00;2059870;28;19924;-46
2022/07/03 02:25:29;;;;;;;;;;;;;;;23.57;51.94;99900.75;2058441;28;20224;-46
2022/07/03 02:26:32;;;;;;;;;;;;;;;23.57;51.88;99896.13;2060399;28;20613;-45
2022/07/03 02:27:40;;;;;;;;;;;;;;;23.58;51.94;99899.72;2056359;28;19986;-47
2022/07/03 02:28:56;;;;;;;;;;;;;;;23.57;51.83;99896.13;2059240;28;19924;-46
2022/07/03 02:30:01;;;;;;;;;;;;;;;23.58;51.90;99894.22;2056523;28;19924;-47
2022/07/03 02:31:03;;;;;;;;;;;;;;;23.57;51.85;99893.38;2058077;28;19918;-46
2022/07/03 02:32:06;;;;;;;;;;;;;;;23.58;51.94;99897.84;2044533;28;20236;-46
2022/07/03 02:33:08;;;;;;;;;;;;;;;23.57;51.87;99904.38;2047203;28;19909;-47
2022/07/03 02:34:13;;;;;;;;;;;;;;;23.59;51.92;99904.19;2063524;28;20041;-45
2022/07/03 02:35:17;;;;;;;;;;;;;;;23.58;51.93;99905.25;2062134;28;20046;-45
2022/07/03 02:36:19;;;;;;;;;;;;;;;23.58;51.80;99906.09;2060476;28;19931;-45
2022/07/03 02:37:22;;;;;;;;;;;;;;;23.58;51.90;99899.72;2060977;28;20236;-45
2022/07/03 02:38:23;;;;;;;;;;;;;;;23.57;51.91;99900.75;2060002;28;20519;-46
2022/07/03 02:39:35;;;;;;;;;;;;;;;23.57;51.91;99898.00;2059407;28;20571;-46
2022/07/03 02:40:55;;;;;;;;;;;;;;;23.58;51.93;99888.72;2059815;28;19979;-45
2022/07/03 02:41:59;;;;;;;;;;;;;;;23.58;51.87;99885.97;2052643;28;19921;-46
2022/07/03 02:43:13;;;;;;;;;;;;;;;23.58;51.91;99883.22;2067141;28;19961;-46
2022/07/03 02:44:25;;;;;;;;;;;;;;;23.57;51.95;99887.00;2063149;28;20755;-46
2022/07/03 02:45:29;;;;;;;;;;;;;;;23.57;51.91;99881.50;2059399;28;20073;-47
2022/07/03 02:47:48;;;;;;;;;;;;;;;23.56;51.93;99872.41;2059534;28;19906;-45
2022/07/03 02:48:50;;;;;;;;;;;;;;;23.57;52.01;99870.50;2056650;28;20256;-46
2022/07/03 02:49:53;;;;;;;;;;;;;;;23.56;52.07;99863.28;2059370;28;19917;-47
2022/07/03 02:50:57;;;;;;;;;;;;;;;23.54;52.09;99867.09;2057836;28;19924;-49
2022/07/03 02:52:08;;;;;;;;;;;;;;;23.56;51.99;99868.78;2057821;28;20669;-46
2022/07/03 02:53:21;;;;;;;;;;;;;;;23.54;52.16;99860.72;2060601;28;19964;-48
2022/07/03 02:54:23;;;;;;;;;;;;;;;23.56;52.22;99860.53;2053816;28;19918;-46
2022/07/03 02:55:44;;;;;;;;;;;;;;;23.56;52.20;99852.28;2059602;28;19924;-47
2022/07/03 02:57:04;;;;;;;;;;;;;;;23.54;52.08;99856.09;2059200;28;20051;-49
2022/07/03 02:58:24;;;;;;;;;;;;;;;23.54;52.18;99856.09;2059299;28;19918;-45
2022/07/03 02:59:31;;;;;;;;;;;;;;;23.53;52.11;99843.34;2049200;28;19911;-48
2022/07/03 03:00:36;;;;;;;;;;;;;;;23.54;51.87;99844.22;2060365;28;19918;-48
2022/07/03 03:01:41;;;;;;;;;;;;;;;23.54;52.08;99845.09;2061650;28;19967;-47
2022/07/03 03:02:44;;;;;;;;;;;;;;;23.56;52.08;99841.28;2061025;28;19921;-48
2022/07/03 03:03:50;;;;;;;;;;;;;;;23.56;52.05;99846.78;2060958;28;20802;-48
2022/07/03 03:05:09;;;;;;;;;;;;;;;23.54;52.14;99845.09;2060873;28;20577;-49
2022/07/03 03:06:13;;;;;;;;;;;;;;;23.54;52.03;99850.59;2054521;28;19938;-47
2022/07/03 03:07:17;;;;;;;;;;;;;;;23.56;52.13;99852.28;2060884;28;19948;-46
2022/07/03 03:08:41;;;;;;;;;;;;;;;23.56;52.15;99849.53;2059223;28;20310;-47
2022/07/03 03:09:43;;;;;;;;;;;;;;;23.54;52.06;99856.09;2058360;28;19917;-48
2022/07/03 03:10:43;;;;;;;;;;;;;;;23.56;52.01;99863.28;2058473;28;19925;-48
2022/07/03 03:11:45;;;;;;;;;;;;;;;23.56;52.03;99868.78;2059132;28;19918;-47
2022/07/03 03:12:46;;;;;;;;;;;;;;;23.54;52.03;99872.59;2059312;28;19940;-50
2022/07/03 03:13:49;;;;;;;;;;;;;;;23.57;52.05;99881.50;2059530;28;19918;-49
2022/07/03 03:14:56;;;;;;;;;;;;;;;23.56;52.08;99879.78;2062551;28;19921;-50
2022/07/03 03:15:57;;;;;;;;;;;;;;;23.57;52.12;99884.25;2053812;28;19952;-50
2022/07/03 03:16:59;;;;;;;;;;;;;;;23.57;52.01;99878.75;2051131;28;19933;-48
2022/07/03 03:18:04;;;;;;;;;;;;;;;23.56;52.18;99879.78;2059242;28;19921;-47
2022/07/03 03:19:04;;;;;;;;;;;;;;;23.56;51.95;99890.81;2048727;28;20016;-49
2022/07/03 03:20:05;;;;;;;;;;;;;;;23.54;52.17;99880.84;2059115;28;19918;-48
2022/07/03 03:21:09;;;;;;;;;;;;;;;23.56;52.20;99885.31;2053490;28;20253;-51
2022/07/03 03:22:33;;;;;;;;;;;;;;;23.56;52.18;99888.06;2055316;28;20369;-48
2022/07/03 03:23:50;;;;;;;;;;;;;;;23.56;52.09;99890.81;2054526;28;19918;-51
2022/07/03 03:24:51;;;;;;;;;;;;;;;23.56;52.15;99893.56;2056927;28;20282;-52
2022/07/03 03:25:54;;;;;;;;;;;;;;;23.53;52.27;99892.88;2060366;28;20033;-52
2022/07/03 03:26:56;;;;;;;;;;;;;;;23.54;52.20;99900.09;2060132;28;19912;-49
2022/07/03 03:27:58;;;;;;;;;;;;;;;23.57;52.24;99909.00;2061982;28;20228;-49
2022/07/03 03:28:59;;;;;;;;;;;;;;;23.54;52.34;99908.38;2057488;28;19917;-51
2022/07/03 03:29:59;;;;;;;;;;;;;;;23.53;52.32;99912.13;2064035;28;20004;-52
2022/07/03 03:31:00;;;;;;;;;;;;;;;23.53;52.17;99912.13;2058864;28;19913;-52
2022/07/03 03:32:00;;;;;;;;;;;;;;;23.53;52.34;99906.63;2057440;28;19997;-50
2022/07/03 03:33:00;;;;;;;;;;;;;;;23.53;52.40;99909.38;2058029;28;19932;-51
2022/07/03 03:34:01;;;;;;;;;;;;;;;23.52;52.30;99918.69;2055873;28;20574;-50
2022/07/03 03:35:02;;;;;;;;;;;;;;;23.53;52.46;99914.88;2059924;28;19960;-47
2022/07/03 03:36:03;;;;;;;;;;;;;;;23.53;52.35;99914.03;2057035;28;20252;-49
2022/07/03 03:37:04;;;;;;;;;;;;;;;23.53;52.29;99908.53;2050802;28;20056;-49
2022/07/03 03:38:04;;;;;;;;;;;;;;;23.53;52.39;99914.88;2059627;28;19921;-50
2022/07/03 03:39:04;;;;;;;;;;;;;;;23.53;52.32;99905.78;2060334;28;20355;-47
2022/07/03 03:40:05;;;;;;;;;;;;;;;23.53;52.33;99909.38;2058904;28;19969;-49
2022/07/03 03:41:06;;;;;;;;;;;;;;;23.53;52.43;99914.03;2059796;28;19917;-49
2022/07/03 03:42:08;;;;;;;;;;;;;;;23.54;52.31;99904.72;2060373;28;20013;-48
2022/07/03 03:43:08;;;;;;;;;;;;;;;23.53;52.34;99909.38;2060144;28;20171;-51
2022/07/03 03:44:08;;;;;;;;;;;;;;;23.53;52.34;99914.88;2060871;28;19953;-51
2022/07/03 03:45:09;;;;;;;;;;;;;;;23.54;52.33;99913.88;2060039;28;19953;-50
2022/07/03 03:46:10;;;;;;;;;;;;;;;23.53;52.31;99914.88;2061365;28;20456;-51
2022/07/03 03:47:10;;;;;;;;;;;;;;;23.54;52.29;99916.63;2061035;28;19918;-50
2022/07/03 03:48:11;;;;;;;;;;;;;;;23.53;52.31;99909.38;2060413;28;20403;-49
2022/07/03 03:49:11;;;;;;;;;;;;;;;23.54;52.21;99910.22;2051276;28;20020;-51
2022/07/03 03:50:12;;;;;;;;;;;;;;;23.52;52.36;99913.19;2053557;28;19929;-51
2022/07/03 03:51:12;;;;;;;;;;;;;;;23.53;52.22;99912.13;2056558;28;20024;-51
2022/07/03 03:52:12;;;;;;;;;;;;;;;23.53;52.33;99914.88;2062827;28;19925;-52
2022/07/03 03:53:14;;;;;;;;;;;;;;;23.52;52.27;99910.44;2055931;28;20385;-49
2022/07/03 03:54:14;;;;;;;;;;;;;;;23.53;52.27;99912.13;2053360;28;20278;-49
2022/07/03 03:55:14;;;;;;;;;;;;;;;23.52;52.29;99912.34;2062160;28;20732;-49
2022/07/03 03:56:15;;;;;;;;;;;;;;;23.53;52.22;99914.03;2059133;28;20243;-48
2022/07/03 03:57:20;;;;;;;;;;;;;;;23.53;52.27;99917.63;2061553;28;19924;-52
2022/07/03 03:58:20;;;;;;;;;;;;;;;23.52;52.38;99915.94;2059976;28;20323;-52
2022/07/03 03:59:21;;;;;;;;;;;;;;;23.52;52.37;99907.69;2064325;28;20225;-53
2022/07/03 04:00:21;;;;;;;;;;;;;;;23.53;52.33;99919.53;2060509;28;20009;-52
2022/07/03 04:01:21;;;;;;;;;;;;;;;23.52;52.29;99921.44;2055474;28;20341;-48
2022/07/03 04:02:22;;;;;;;;;;;;;;;23.52;52.42;99929.69;2056471;28;19918;-49
2022/07/03 04:03:22;;;;;;;;;;;;;;;23.52;52.36;99924.19;2055916;28;19940;-49
2022/07/03 04:04:22;;;;;;;;;;;;;;;23.52;52.41;99924.19;2061814;28;19948;-50
2022/07/03 04:05:23;;;;;;;;;;;;;;;23.52;52.35;99924.19;2060350;28;20047;-48
2022/07/03 04:06:23;;;;;;;;;;;;;;;23.51;52.38;99933.47;2061369;28;19971;-47
2022/07/03 04:07:23;;;;;;;;;;;;;;;23.53;52.55;99936.03;2060575;28;20012;-50
2022/07/03 04:08:24;;;;;;;;;;;;;;;23.52;52.54;99939.84;2061419;28;19925;-49
2022/07/03 04:09:25;;;;;;;;;;;;;;;23.52;52.39;99934.34;2068371;28;19936;-49
2022/07/03 04:10:25;;;;;;;;;;;;;;;23.52;52.45;99940.69;2062979;28;19922;-48
2022/07/03 04:11:26;;;;;;;;;;;;;;;23.52;52.47;99939.84;2062144;28;19909;-49
2022/07/03 04:12:26;;;;;;;;;;;;;;;23.51;52.54;99938.97;2060030;28;20318;-49
2022/07/03 04:13:27;;;;;;;;;;;;;;;23.51;52.54;99938.97;2061389;28;19938;-48
2022/07/03 04:14:27;;;;;;;;;;;;;;;23.51;52.47;99944.47;2060581;28;20312;-48
2022/07/03 04:15:28;;;;;;;;;;;;;;;23.52;52.43;99939.84;2060009;28;19917;-49
2022/07/03 04:16:28;;;;;;;;;;;;;;;23.52;52.48;99940.69;2062960;28;19923;-49
2022/07/03 04:17:29;;;;;;;;;;;;;;;23.52;52.55;99945.34;2064994;28;19917;-49
2022/07/03 04:18:29;;;;;;;;;;;;;;;23.51;52.51;99938.97;2066230;28;19932;-49
2022/07/03 04:19:30;;;;;;;;;;;;;;;23.51;52.54;99943.63;2064899;28;20208;-48
2022/07/03 04:20:30;;;;;;;;;;;;;;;23.52;52.40;99943.44;2061909;28;19964;-50
2022/07/03 04:21:30;;;;;;;;;;;;;;;23.52;52.42;99940.69;2062182;28;20308;-49
2022/07/03 04:22:31;;;;;;;;;;;;;;;23.52;52.44;99948.09;2059604;28;20040;-50
2022/07/03 04:23:31;;;;;;;;;;;;;;;23.52;52.42;99943.44;2063238;28;19921;-48
2022/07/03 04:24:31;;;;;;;;;;;;;;;23.52;52.39;99945.34;2061424;28;19963;-50
2022/07/03 04:25:32;;;;;;;;;;;;;;;23.52;52.37;99943.44;2051264;28;19922;-48
2022/07/03 04:26:32;;;;;;;;;;;;;;;23.52;52.40;99943.44;2052882;28;20242;-49
2022/07/03 04:27:33;;;;;;;;;;;;;;;23.52;52.29;99939.84;2057602;28;19925;-48
2022/07/03 04:28:33;;;;;;;;;;;;;;;23.52;52.38;99934.34;2057514;28;19917;-48
2022/07/03 04:29:33;;;;;;;;;;;;;;;23.53;52.46;99931.41;2057241;28;20443;-49
2022/07/03 04:30:34;;;;;;;;;;;;;;;23.52;52.36;99935.19;2059136;28;20126;-48
2022/07/03 04:31:34;;;;;;;;;;;;;;;23.52;52.31;99932.44;2053737;28;20122;-51
2022/07/03 04:32:34;;;;;;;;;;;;;;;23.52;52.37;99929.69;2055657;28;20470;-49
2022/07/03 04:33:34;;;;;;;;;;;;;;;23.52;52.48;99935.19;2066951;28;20103;-50
2022/07/03 04:34:35;;;;;;;;;;;;;;;23.51;52.45;99938.97;2053647;28;20831;-48
2022/07/03 04:35:35;;;;;;;;;;;;;;;23.51;52.52;99938.97;2056247;28;19929;-47
2022/07/03 04:36:35;;;;;;;;;;;;;;;23.52;52.43;99946.19;2053068;28;19910;-48
2022/07/03 04:37:36;;;;;;;;;;;;;;;23.51;52.51;99938.97;2059753;28;19924;-49
2022/07/03 04:38:36;;;;;;;;;;;;;;;23.51;52.49;99944.47;2055394;28;19918;-47
2022/07/03 04:39:36;;;;;;;;;;;;;;;23.51;52.65;99944.47;2054058;28;19944;-46
2022/07/03 04:40:36;;;;;;;;;;;;;;;23.51;52.61;99941.72;2056583;28;20221;-47
2022/07/03 04:41:37;;;;;;;;;;;;;;;23.51;52.53;99949.97;2055489;28;19925;-47
2022/07/03 04:42:37;;;;;;;;;;;;;;;23.50;52.62;99953.78;2061060;28;19924;-49
2022/07/03 04:43:37;;;;;;;;;;;;;;;23.51;52.60;99949.13;2060686;28;19921;-49
2022/07/03 04:44:37;;;;;;;;;;;;;;;23.50;52.69;99945.53;2061925;28;19933;-49
2022/07/03 04:45:38;;;;;;;;;;;;;;;23.50;52.74;99953.78;2060386;28;20432;-49
2022/07/03 04:46:38;;;;;;;;;;;;;;;23.50;52.77;99948.28;2060667;28;20279;-46
2022/07/03 04:47:38;;;;;;;;;;;;;;;23.50;52.83;99952.94;2061759;28;19918;-46
2022/07/03 04:48:39;;;;;;;;;;;;;;;23.50;52.70;99955.69;2052063;28;19914;-47
2022/07/03 04:49:39;;;;;;;;;;;;;;;23.50;52.71;99947.44;2047523;28;19929;-48
2022/07/03 04:50:39;;;;;;;;;;;;;;;23.50;52.84;99947.44;2063051;28;19920;-49
2022/07/03 04:51:39;;;;;;;;;;;;;;;23.50;52.76;99953.78;2060349;28;19918;-47
2022/07/03 04:52:40;;;;;;;;;;;;;;;23.50;52.71;99953.78;2058747;28;19964;-49
2022/07/03 04:53:40;;;;;;;;;;;;;;;23.50;52.74;99945.53;2058544;28;20287;-46
2022/07/03 04:54:40;;;;;;;;;;;;;;;23.50;52.82;99948.28;2060293;28;20020;-47
2022/07/03 04:55:41;;;;;;;;;;;;;;;23.50;52.74;99948.28;2053216;28;19929;-49
2022/07/03 04:56:41;;;;;;;;;;;;;;;23.49;52.66;99946.56;2058089;28;20113;-49
2022/07/03 04:57:41;;;;;;;;;;;;;;;23.51;52.66;99943.63;2058078;28;19925;-49
2022/07/03 04:58:42;;;;;;;;;;;;;;;23.50;52.74;99942.78;2061598;28;19929;-47
2022/07/03 04:59:42;;;;;;;;;;;;;;;23.50;52.74;99942.78;2053159;28;20312;-50
2022/07/03 05:00:43;;;;;;;;;;;;;;;23.49;52.55;99943.81;2056285;28;20861;-47
2022/07/03 05:01:43;;;;;;;;;;;;;;;23.50;52.58;99945.53;2060214;28;19922;-46
2022/07/03 05:02:43;;;;;;;;;;;;;;;23.50;52.60;99942.78;2060612;28;19918;-46
2022/07/03 05:03:43;;;;;;;;;;;;;;;23.50;52.70;99953.78;2061281;28;19918;-47
2022/07/03 05:04:44;;;;;;;;;;;;;;;23.50;52.57;99951.03;2061376;28;19910;-47
2022/07/03 05:05:44;;;;;;;;;;;;;;;23.49;52.60;99949.31;2059820;28;19932;-47
2022/07/03 05:06:44;;;;;;;;;;;;;;;23.49;52.69;99949.31;2053940;28;20366;-46
2022/07/03 05:07:45;;;;;;;;;;;;;;;23.50;52.68;99948.28;2056291;28;20012;-46
2022/07/03 05:08:45;;;;;;;;;;;;;;;23.50;52.67;99948.28;2055311;28;20209;-49
2022/07/03 05:09:45;;;;;;;;;;;;;;;23.50;52.66;99950.19;2052651;28;19917;-47
2022/07/03 05:10:46;;;;;;;;;;;;;;;23.50;52.62;99951.03;2052312;28;19921;-46
2022/07/03 05:11:47;;;;;;;;;;;;;;;23.50;52.60;99950.19;2054631;28;19925;-46
2022/07/03 05:12:47;;;;;;;;;;;;;;;23.49;52.66;99957.56;2047036;28;19969;-46
2022/07/03 05:13:48;;;;;;;;;;;;;;;23.50;52.67;99959.28;2061666;28;19924;-46
2022/07/03 05:14:48;;;;;;;;;;;;;;;23.50;52.63;99959.28;2058007;28;19917;-46
2022/07/03 05:15:49;;;;;;;;;;;;;;;23.50;52.62;99959.28;2050048;28;20344;-46
2022/07/03 05:16:49;;;;;;;;;;;;;;;23.49;52.66;99957.56;2061940;28;19983;-49
2022/07/03 05:17:49;;;;;;;;;;;;;;;23.49;52.70;99957.56;2055959;28;19925;-46
2022/07/03 05:18:49;;;;;;;;;;;;;;;23.48;52.75;99964.09;2060035;28;19929;-47
2022/07/03 05:20:23;;;;;;;;;;;;;;;23.49;52.69;99957.56;2061668;28;20148;-46
2022/07/03 05:21:13;;;;;;;;;;;;;;;23.48;52.92;99966.84;2059289;28;19910;-48
2022/07/03 05:22:14;;;;;;;;;;;;;;;23.49;52.77;99962.19;2058598;28;19909;-48
2022/07/03 05:23:14;;;;;;;;;;;;;;;23.48;52.67;99961.34;2060801;28;19988;-49
2022/07/03 05:24:14;;;;;;;;;;;;;;;23.48;52.91;99966.84;2061671;28;19913;-47
2022/07/03 05:25:15;;;;;;;;;;;;;;;23.48;52.94;99966.84;2060479;28;20131;-46
2022/07/03 05:26:15;;;;;;;;;;;;;;;23.49;52.94;99962.19;2059634;28;20000;-47
2022/07/03 05:27:15;;;;;;;;;;;;;;;23.47;52.86;99954.16;2062013;28;19922;-46
2022/07/03 05:28:16;;;;;;;;;;;;;;;23.48;52.84;99953.09;2058742;28;20211;-47
2022/07/03 05:29:16;;;;;;;;;;;;;;;23.48;53.00;99961.34;2062914;28;19919;-47